sensor_id;sensor_type;location;lat;lon;timestamp;pressure;altitude;pressure_sealevel;temperature;humidity
45040;BME280;30778;53.574;7.770;2022-12-18T00:01:53;102809.00;;;-5.53;56.38
45040;BME280;30778;53.574;7.770;2022-12-18T00:04:22;102789.69;;;-6.08;57.49
45040;BME280;30778;53.574;7.770;2022-12-18T00:06:48;102782.97;;;-5.92;57.13
45040;BME280;30778;53.574;7.770;2022-12-18T00:09:13;102790.41;;;-6.39;58.19
45040;BME280;30778;53.574;7.770;2022-12-18T00:11:39;102785.75;;;-6.03;57.65
45040;BME280;30778;53.574;7.770;2022-12-18T00:14:04;102789.44;;;-6.41;58.18
45040;BME280;30778;53.574;7.770;2022-12-18T00:16:30;102791.31;;;-5.95;57.52
45040;BME280;30778;53.574;7.770;2022-12-18T00:18:58;102803.63;;;-6.16;57.57
45040;BME280;30778;53.574;7.770;2022-12-18T00:21:25;102801.78;;;-5.90;57.06
45040;BME280;30778;53.574;7.770;2022-12-18T00:23:51;102814.78;;;-5.86;57.08
45040;BME280;30778;53.574;7.770;2022-12-18T00:28:44;102823.28;;;-6.28;57.27
45040;BME280;30778;53.574;7.770;2022-12-18T00:31:12;102811.91;;;-6.62;58.61
45040;BME280;30778;53.574;7.770;2022-12-18T00:33:38;102817.31;;;-5.86;56.69
45040;BME280;30778;53.574;7.770;2022-12-18T00:36:06;102804.88;;;-6.09;56.60
45040;BME280;30778;53.574;7.770;2022-12-18T00:38:33;102795.44;;;-5.97;56.86
45040;BME280;30778;53.574;7.770;2022-12-18T00:40:59;102797.88;;;-5.99;56.79
45040;BME280;30778;53.574;7.770;2022-12-18T00:43:24;102804.94;;;-5.65;55.93
45040;BME280;30778;53.574;7.770;2022-12-18T00:45:52;102807.06;;;-6.44;57.80
45040;BME280;30778;53.574;7.770;2022-12-18T00:48:17;102812.16;;;-6.44;57.94
45040;BME280;30778;53.574;7.770;2022-12-18T00:50:43;102813.50;;;-6.07;57.40
45040;BME280;30778;53.574;7.770;2022-12-18T00:53:09;102807.03;;;-5.87;56.89
45040;BME280;30778;53.574;7.770;2022-12-18T00:55:34;102806.53;;;-5.82;56.17
45040;BME280;30778;53.574;7.770;2022-12-18T00:57:59;102810.22;;;-5.47;55.30
45040;BME280;30778;53.574;7.770;2022-12-18T01:00:25;102820.91;;;-5.82;56.03
45040;BME280;30778;53.574;7.770;2022-12-18T01:02:51;102826.19;;;-5.64;55.50
45040;BME280;30778;53.574;7.770;2022-12-18T01:05:18;102838.59;;;-5.56;54.89
45040;BME280;30778;53.574;7.770;2022-12-18T01:07:44;102850.59;;;-6.11;56.68
45040;BME280;30778;53.574;7.770;2022-12-18T01:10:11;102854.50;;;-5.60;55.52
45040;BME280;30778;53.574;7.770;2022-12-18T01:12:37;102855.28;;;-5.61;55.31
45040;BME280;30778;53.574;7.770;2022-12-18T01:15:03;102854.31;;;-5.63;55.07
45040;BME280;30778;53.574;7.770;2022-12-18T01:17:28;102851.78;;;-5.63;55.01
45040;BME280;30778;53.574;7.770;2022-12-18T01:19:54;102844.09;;;-5.92;55.73
45040;BME280;30778;53.574;7.770;2022-12-18T01:22:19;102847.88;;;-6.14;56.22
45040;BME280;30778;53.574;7.770;2022-12-18T01:24:45;102851.84;;;-6.32;57.18
45040;BME280;30778;53.574;7.770;2022-12-18T01:27:10;102849.22;;;-6.06;56.00
45040;BME280;30778;53.574;7.770;2022-12-18T01:29:36;102858.44;;;-6.08;55.82
45040;BME280;30778;53.574;7.770;2022-12-18T01:32:01;102858.50;;;-6.06;55.43
45040;BME280;30778;53.574;7.770;2022-12-18T01:34:28;102863.94;;;-6.96;58.23
45040;BME280;30778;53.574;7.770;2022-12-18T01:36:54;102866.50;;;-6.83;57.89
45040;BME280;30778;53.574;7.770;2022-12-18T01:39:19;102872.56;;;-6.68;57.33
45040;BME280;30778;53.574;7.770;2022-12-18T01:41:45;102868.34;;;-6.81;57.48
45040;BME280;30778;53.574;7.770;2022-12-18T01:44:56;102872.25;;;-6.59;56.55
45040;BME280;30778;53.574;7.770;2022-12-18T01:47:33;102875.97;;;-6.54;56.11
45040;BME280;30778;53.574;7.770;2022-12-18T01:50:03;102879.84;;;-6.32;55.77
45040;BME280;30778;53.574;7.770;2022-12-18T01:52:31;102879.13;;;-6.17;54.92
45040;BME280;30778;53.574;7.770;2022-12-18T01:54:57;102877.69;;;-6.26;55.22
45040;BME280;30778;53.574;7.770;2022-12-18T01:57:25;102875.34;;;-6.36;55.61
45040;BME280;30778;53.574;7.770;2022-12-18T01:59:54;102879.06;;;-6.45;55.47
45040;BME280;30778;53.574;7.770;2022-12-18T02:02:21;102865.81;;;-6.81;57.08
45040;BME280;30778;53.574;7.770;2022-12-18T02:04:47;102866.28;;;-6.60;55.35
45040;BME280;30778;53.574;7.770;2022-12-18T02:10:03;102869.13;;;-6.82;56.28
45040;BME280;30778;53.574;7.770;2022-12-18T02:12:43;102882.25;;;-6.89;56.56
45040;BME280;30778;53.574;7.770;2022-12-18T02:15:35;102876.19;;;-6.77;56.34
45040;BME280;30778;53.574;7.770;2022-12-18T02:20:38;102859.81;;;-6.54;54.96
45040;BME280;30778;53.574;7.770;2022-12-18T02:23:24;102867.31;;;-6.43;54.51
45040;BME280;30778;53.574;7.770;2022-12-18T02:26:13;102867.75;;;-6.50;54.52
45040;BME280;30778;53.574;7.770;2022-12-18T02:28:45;102868.22;;;-6.55;54.72
45040;BME280;30778;53.574;7.770;2022-12-18T02:31:19;102862.09;;;-6.86;55.50
45040;BME280;30778;53.574;7.770;2022-12-18T02:33:46;102862.06;;;-7.12;54.99
45040;BME280;30778;53.574;7.770;2022-12-18T02:36:14;102862.84;;;-6.73;54.69
45040;BME280;30778;53.574;7.770;2022-12-18T02:38:44;102857.00;;;-6.72;54.83
45040;BME280;30778;53.574;7.770;2022-12-18T02:41:13;102863.66;;;-6.88;54.92
45040;BME280;30778;53.574;7.770;2022-12-18T02:43:47;102858.38;;;-7.17;55.68
45040;BME280;30778;53.574;7.770;2022-12-18T02:46:29;102850.16;;;-7.13;55.76
45040;BME280;30778;53.574;7.770;2022-12-18T02:49:21;102854.88;;;-6.93;55.22
45040;BME280;30778;53.574;7.770;2022-12-18T03:00:16;102860.94;;;-7.04;54.87
45040;BME280;30778;53.574;7.770;2022-12-18T03:03:06;102848.00;;;-6.94;54.50
45040;BME280;30778;53.574;7.770;2022-12-18T03:05:40;102838.81;;;-7.05;54.65
45040;BME280;30778;53.574;7.770;2022-12-18T03:08:20;102849.16;;;-7.42;55.89
45040;BME280;30778;53.574;7.770;2022-12-18T03:10:57;102854.34;;;-7.14;54.96
45040;BME280;30778;53.574;7.770;2022-12-18T03:13:53;102854.28;;;-7.02;54.45
45040;BME280;30778;53.574;7.770;2022-12-18T03:16:22;102854.06;;;-7.05;54.35
45040;BME280;30778;53.574;7.770;2022-12-18T03:18:53;102852.31;;;-7.06;54.23
45040;BME280;30778;53.574;7.770;2022-12-18T03:21:25;102855.41;;;-7.37;54.93
45040;BME280;30778;53.574;7.770;2022-12-18T03:23:53;102867.34;;;-6.96;53.85
45040;BME280;30778;53.574;7.770;2022-12-18T03:26:25;102863.06;;;-6.97;53.55
45040;BME280;30778;53.574;7.770;2022-12-18T03:29:00;102858.00;;;-6.97;53.62
45040;BME280;30778;53.574;7.770;2022-12-18T03:31:31;102853.63;;;-7.51;54.96
45040;BME280;30778;53.574;7.770;2022-12-18T03:34:04;102857.63;;;-7.80;56.30
45040;BME280;30778;53.574;7.770;2022-12-18T03:36:40;102857.38;;;-7.33;54.69
45040;BME280;30778;53.574;7.770;2022-12-18T03:39:06;102851.31;;;-7.35;54.76
45040;BME280;30778;53.574;7.770;2022-12-18T03:41:51;102855.53;;;-7.60;55.34
45040;BME280;30778;53.574;7.770;2022-12-18T03:44:38;102845.19;;;-7.64;55.78
45040;BME280;30778;53.574;7.770;2022-12-18T03:47:28;102848.66;;;-7.36;54.79
45040;BME280;30778;53.574;7.770;2022-12-18T03:53:36;102836.53;;;-7.27;54.39
45040;BME280;30778;53.574;7.770;2022-12-18T03:56:06;102827.56;;;-7.35;54.07
45040;BME280;30778;53.574;7.770;2022-12-18T03:58:38;102825.41;;;-7.29;53.78
45040;BME280;30778;53.574;7.770;2022-12-18T04:01:16;102824.81;;;-7.25;53.59
45040;BME280;30778;53.574;7.770;2022-12-18T04:03:44;102815.38;;;-8.05;55.92
45040;BME280;30778;53.574;7.770;2022-12-18T04:06:12;102817.41;;;-7.74;55.04
45040;BME280;30778;53.574;7.770;2022-12-18T04:08:40;102819.97;;;-7.60;54.41
45040;BME280;30778;53.574;7.770;2022-12-18T04:11:09;102828.72;;;-7.82;55.34
45040;BME280;30778;53.574;7.770;2022-12-18T04:13:36;102825.00;;;-7.74;55.04
45040;BME280;30778;53.574;7.770;2022-12-18T04:16:05;102832.44;;;-7.77;54.60
45040;BME280;30778;53.574;7.770;2022-12-18T04:18:31;102836.94;;;-7.73;54.60
45040;BME280;30778;53.574;7.770;2022-12-18T04:20:58;102841.47;;;-7.69;54.48
45040;BME280;30778;53.574;7.770;2022-12-18T04:23:24;102837.41;;;-8.03;55.53
45040;BME280;30778;53.574;7.770;2022-12-18T04:25:54;102844.47;;;-7.99;55.24
45040;BME280;30778;53.574;7.770;2022-12-18T04:28:33;102842.25;;;-7.95;55.07
45040;BME280;30778;53.574;7.770;2022-12-18T04:30:59;102848.59;;;-7.88;54.70
45040;BME280;30778;53.574;7.770;2022-12-18T04:33:31;102856.34;;;-7.87;54.48
45040;BME280;30778;53.574;7.770;2022-12-18T04:35:57;102861.28;;;-7.63;54.11
45040;BME280;30778;53.574;7.770;2022-12-18T04:38:23;102864.31;;;-7.94;54.50
45040;BME280;30778;53.574;7.770;2022-12-18T04:40:56;102876.38;;;-7.78;54.10
45040;BME280;30778;53.574;7.770;2022-12-18T04:43:26;102874.09;;;-7.61;53.36
45040;BME280;30778;53.574;7.770;2022-12-18T04:45:51;102869.78;;;-7.88;54.25
45040;BME280;30778;53.574;7.770;2022-12-18T04:48:17;102876.28;;;-7.79;53.97
45040;BME280;30778;53.574;7.770;2022-12-18T04:50:42;102879.00;;;-7.76;53.87
45040;BME280;30778;53.574;7.770;2022-12-18T04:53:08;102882.84;;;-7.95;53.91
45040;BME280;30778;53.574;7.770;2022-12-18T04:55:33;102879.56;;;-7.94;54.07
45040;BME280;30778;53.574;7.770;2022-12-18T04:57:58;102886.06;;;-7.97;54.30
45040;BME280;30778;53.574;7.770;2022-12-18T05:00:25;102876.13;;;-7.69;53.05
45040;BME280;30778;53.574;7.770;2022-12-18T05:02:51;102877.81;;;-8.07;53.75
45040;BME280;30778;53.574;7.770;2022-12-18T05:05:16;102867.63;;;-7.95;53.16
45040;BME280;30778;53.574;7.770;2022-12-18T05:07:45;102877.56;;;-7.98;53.79
45040;BME280;30778;53.574;7.770;2022-12-18T05:10:10;102880.41;;;-7.93;53.46
45040;BME280;30778;53.574;7.770;2022-12-18T05:12:36;102875.09;;;-7.85;52.99
45040;BME280;30778;53.574;7.770;2022-12-18T05:15:21;102865.59;;;-7.87;52.92
45040;BME280;30778;53.574;7.770;2022-12-18T05:17:47;102864.81;;;-7.86;52.66
45040;BME280;30778;53.574;7.770;2022-12-18T05:20:12;102875.97;;;-7.84;52.79
45040;BME280;30778;53.574;7.770;2022-12-18T05:22:38;102878.25;;;-8.00;52.48
45040;BME280;30778;53.574;7.770;2022-12-18T05:25:03;102872.13;;;-7.91;52.36
45040;BME280;30778;53.574;7.770;2022-12-18T05:27:29;102875.28;;;-7.81;52.20
45040;BME280;30778;53.574;7.770;2022-12-18T05:29:55;102886.19;;;-8.44;54.22
45040;BME280;30778;53.574;7.770;2022-12-18T05:32:20;102875.41;;;-8.17;53.15
45040;BME280;30778;53.574;7.770;2022-12-18T05:34:45;102881.34;;;-8.05;52.88
45040;BME280;30778;53.574;7.770;2022-12-18T05:37:11;102876.28;;;-8.05;52.52
45040;BME280;30778;53.574;7.770;2022-12-18T05:39:36;102876.88;;;-8.20;52.70
45040;BME280;30778;53.574;7.770;2022-12-18T05:42:02;102870.34;;;-8.17;53.11
45040;BME280;30778;53.574;7.770;2022-12-18T05:44:27;102889.09;;;-8.15;52.87
45040;BME280;30778;53.574;7.770;2022-12-18T05:46:53;102883.78;;;-8.06;52.79
45040;BME280;30778;53.574;7.770;2022-12-18T05:49:18;102885.19;;;-8.10;52.84
45040;BME280;30778;53.574;7.770;2022-12-18T05:51:44;102900.34;;;-8.11;52.92
45040;BME280;30778;53.574;7.770;2022-12-18T05:54:10;102902.97;;;-8.10;52.44
45040;BME280;30778;53.574;7.770;2022-12-18T05:56:36;102892.25;;;-7.94;52.19
45040;BME280;30778;53.574;7.770;2022-12-18T05:59:01;102891.59;;;-8.52;53.37
45040;BME280;30778;53.574;7.770;2022-12-18T06:01:27;102895.41;;;-8.33;53.49
45040;BME280;30778;53.574;7.770;2022-12-18T06:03:52;102896.41;;;-8.43;53.45
45040;BME280;30778;53.574;7.770;2022-12-18T06:06:28;102894.00;;;-8.41;53.23
45040;BME280;30778;53.574;7.770;2022-12-18T06:08:54;102907.19;;;-8.22;52.92
45040;BME280;30778;53.574;7.770;2022-12-18T06:11:23;102907.84;;;-8.13;52.53
45040;BME280;30778;53.574;7.770;2022-12-18T06:13:56;102907.13;;;-8.35;52.72
45040;BME280;30778;53.574;7.770;2022-12-18T06:16:22;102904.56;;;-8.35;52.51
45040;BME280;30778;53.574;7.770;2022-12-18T06:18:47;102890.13;;;-8.24;53.07
45040;BME280;30778;53.574;7.770;2022-12-18T06:21:13;102899.94;;;-8.29;52.81
45040;BME280;30778;53.574;7.770;2022-12-18T06:23:38;102902.31;;;-8.19;52.59
45040;BME280;30778;53.574;7.770;2022-12-18T06:26:09;102904.38;;;-8.01;52.00
45040;BME280;30778;53.574;7.770;2022-12-18T06:28:35;102897.66;;;-8.01;52.04
45040;BME280;30778;53.574;7.770;2022-12-18T06:31:02;102904.53;;;-8.23;52.41
45040;BME280;30778;53.574;7.770;2022-12-18T06:33:28;102904.59;;;-7.98;51.67
45040;BME280;30778;53.574;7.770;2022-12-18T06:35:54;102900.91;;;-8.15;52.04
45040;BME280;30778;53.574;7.770;2022-12-18T06:38:24;102897.19;;;-7.95;51.54
45040;BME280;30778;53.574;7.770;2022-12-18T06:40:49;102897.50;;;-8.16;51.83
45040;BME280;30778;53.574;7.770;2022-12-18T06:43:15;102905.41;;;-8.23;52.06
45040;BME280;30778;53.574;7.770;2022-12-18T06:45:40;102901.38;;;-8.33;51.93
45040;BME280;30778;53.574;7.770;2022-12-18T06:48:06;102910.06;;;-8.17;51.96
45040;BME280;30778;53.574;7.770;2022-12-18T06:50:31;102906.03;;;-8.62;53.21
45040;BME280;30778;53.574;7.770;2022-12-18T06:52:57;102910.97;;;-8.52;52.79
45040;BME280;30778;53.574;7.770;2022-12-18T06:55:25;102915.56;;;-8.23;51.73
45040;BME280;30778;53.574;7.770;2022-12-18T06:57:50;102913.53;;;-8.40;52.03
45040;BME280;30778;53.574;7.770;2022-12-18T07:00:16;102911.00;;;-8.40;52.24
45040;BME280;30778;53.574;7.770;2022-12-18T07:02:42;102915.84;;;-8.55;52.54
45040;BME280;30778;53.574;7.770;2022-12-18T07:05:07;102918.25;;;-8.57;52.47
45040;BME280;30778;53.574;7.770;2022-12-18T07:07:34;102909.41;;;-8.27;51.92
45040;BME280;30778;53.574;7.770;2022-12-18T07:10:00;102907.28;;;-8.09;51.46
45040;BME280;30778;53.574;7.770;2022-12-18T07:12:26;102903.19;;;-8.18;51.22
45040;BME280;30778;53.574;7.770;2022-12-18T07:14:52;102905.31;;;-8.13;51.01
45040;BME280;30778;53.574;7.770;2022-12-18T07:17:17;102900.44;;;-8.10;51.00
45040;BME280;30778;53.574;7.770;2022-12-18T07:19:43;102914.28;;;-8.41;51.60
45040;BME280;30778;53.574;7.770;2022-12-18T07:22:08;102912.47;;;-8.19;51.16
45040;BME280;30778;53.574;7.770;2022-12-18T07:24:34;102912.72;;;-8.28;51.09
45040;BME280;30778;53.574;7.770;2022-12-18T07:27:00;102906.00;;;-8.27;51.32
45040;BME280;30778;53.574;7.770;2022-12-18T07:29:25;102902.88;;;-8.23;51.09
45040;BME280;30778;53.574;7.770;2022-12-18T07:31:50;102911.09;;;-8.27;50.97
45040;BME280;30778;53.574;7.770;2022-12-18T07:34:16;102910.50;;;-8.23;50.83
45040;BME280;30778;53.574;7.770;2022-12-18T07:36:41;102908.22;;;-8.32;51.05
45040;BME280;30778;53.574;7.770;2022-12-18T07:39:07;102905.69;;;-8.43;51.19
45040;BME280;30778;53.574;7.770;2022-12-18T07:41:33;102901.59;;;-8.41;51.34
45040;BME280;30778;53.574;7.770;2022-12-18T07:44:10;102900.72;;;-8.42;51.12
45040;BME280;30778;53.574;7.770;2022-12-18T07:46:35;102893.00;;;-8.43;50.90
45040;BME280;30778;53.574;7.770;2022-12-18T07:49:02;102897.09;;;-8.46;51.05
45040;BME280;30778;53.574;7.770;2022-12-18T07:51:27;102897.09;;;-8.46;51.21
45040;BME280;30778;53.574;7.770;2022-12-18T07:53:53;102897.31;;;-8.42;51.10
45040;BME280;30778;53.574;7.770;2022-12-18T07:56:19;102900.19;;;-8.38;50.91
45040;BME280;30778;53.574;7.770;2022-12-18T07:58:45;102903.78;;;-8.34;50.89
45040;BME280;30778;53.574;7.770;2022-12-18T08:01:13;102916.28;;;-8.37;50.81
45040;BME280;30778;53.574;7.770;2022-12-18T08:03:39;102916.28;;;-8.37;51.02
45040;BME280;30778;53.574;7.770;2022-12-18T08:06:07;102918.25;;;-8.33;51.05
45040;BME280;30778;53.574;7.770;2022-12-18T08:08:34;102917.22;;;-8.23;50.77
45040;BME280;30778;53.574;7.770;2022-12-18T08:11:01;102918.44;;;-8.18;50.71
45040;BME280;30778;53.574;7.770;2022-12-18T08:13:27;102912.03;;;-8.13;50.66
45040;BME280;30778;53.574;7.770;2022-12-18T08:18:22;102914.25;;;-7.81;50.03
45040;BME280;30778;53.574;7.770;2022-12-18T08:20:47;102902.84;;;-7.74;49.99
45040;BME280;30778;53.574;7.770;2022-12-18T08:23:13;102905.44;;;-7.61;50.12
45040;BME280;30778;53.574;7.770;2022-12-18T08:25:38;102916.91;;;-7.54;49.83
45040;BME280;30778;53.574;7.770;2022-12-18T08:28:03;102914.41;;;-7.41;49.64
45040;BME280;30778;53.574;7.770;2022-12-18T08:30:29;102906.81;;;-7.28;49.69
45040;BME280;30778;53.574;7.770;2022-12-18T08:32:54;102900.38;;;-7.23;49.58
45040;BME280;30778;53.574;7.770;2022-12-18T08:35:20;102899.75;;;-7.07;49.63
45040;BME280;30778;53.574;7.770;2022-12-18T08:37:45;102902.47;;;-6.90;49.23
45040;BME280;30778;53.574;7.770;2022-12-18T08:40:11;102905.16;;;-6.75;48.95
45040;BME280;30778;53.574;7.770;2022-12-18T08:42:37;102907.47;;;-6.65;48.84
45040;BME280;30778;53.574;7.770;2022-12-18T08:45:21;102911.09;;;-6.48;48.80
45040;BME280;30778;53.574;7.770;2022-12-18T08:47:47;102908.22;;;-6.13;48.47
45040;BME280;30778;53.574;7.770;2022-12-18T08:50:12;102909.28;;;-5.66;47.83
45040;BME280;30778;53.574;7.770;2022-12-18T08:52:38;102902.97;;;-5.30;46.82
45040;BME280;30778;53.574;7.770;2022-12-18T08:55:04;102908.16;;;-4.99;45.42
45040;BME280;30778;53.574;7.770;2022-12-18T08:57:29;102927.41;;;-4.89;45.33
45040;BME280;30778;53.574;7.770;2022-12-18T08:59:55;102934.06;;;-5.36;45.56
45040;BME280;30778;53.574;7.770;2022-12-18T09:02:20;102932.56;;;-5.32;45.32
45040;BME280;30778;53.574;7.770;2022-12-18T09:04:49;102947.19;;;-5.58;45.88
45040;BME280;30778;53.574;7.770;2022-12-18T09:07:14;102947.44;;;-5.68;46.89
45040;BME280;30778;53.574;7.770;2022-12-18T09:09:40;102928.81;;;-5.67;46.54
45040;BME280;30778;53.574;7.770;2022-12-18T09:12:05;102935.31;;;-5.72;46.65
45040;BME280;30778;53.574;7.770;2022-12-18T09:14:31;102931.25;;;-5.68;46.19
45040;BME280;30778;53.574;7.770;2022-12-18T09:16:56;102930.47;;;-5.96;47.37
45040;BME280;30778;53.574;7.770;2022-12-18T09:19:22;102936.22;;;-5.57;46.75
45040;BME280;30778;53.574;7.770;2022-12-18T09:21:47;102941.25;;;-5.43;46.60
45040;BME280;30778;53.574;7.770;2022-12-18T09:24:16;102935.00;;;-5.48;46.10
45040;BME280;30778;53.574;7.770;2022-12-18T09:26:41;102922.28;;;-5.34;46.45
45040;BME280;30778;53.574;7.770;2022-12-18T09:29:07;102938.38;;;-5.20;46.00
45040;BME280;30778;53.574;7.770;2022-12-18T09:31:33;102926.16;;;-5.25;46.10
45040;BME280;30778;53.574;7.770;2022-12-18T09:33:58;102927.56;;;-5.16;45.72
45040;BME280;30778;53.574;7.770;2022-12-18T09:36:24;102939.19;;;-5.21;45.72
45040;BME280;30778;53.574;7.770;2022-12-18T09:38:50;102941.38;;;-5.12;45.60
45040;BME280;30778;53.574;7.770;2022-12-18T09:44:29;102943.75;;;-5.00;45.52
45040;BME280;30778;53.574;7.770;2022-12-18T09:47:15;102935.75;;;-4.77;45.45
45040;BME280;30778;53.574;7.770;2022-12-18T09:49:45;102932.66;;;-4.71;45.14
45040;BME280;30778;53.574;7.770;2022-12-18T09:54:41;102939.53;;;-4.85;44.72
45040;BME280;30778;53.574;7.770;2022-12-18T09:57:18;102938.06;;;-4.96;45.30
45040;BME280;30778;53.574;7.770;2022-12-18T09:59:47;102929.84;;;-4.90;44.94
45040;BME280;30778;53.574;7.770;2022-12-18T10:02:24;102925.91;;;-4.85;44.86
45040;BME280;30778;53.574;7.770;2022-12-18T10:05:28;102934.59;;;-4.82;44.95
45040;BME280;30778;53.574;7.770;2022-12-18T10:08:01;102926.44;;;-4.76;44.86
45040;BME280;30778;53.574;7.770;2022-12-18T10:10:43;102917.25;;;-4.73;45.15
45040;BME280;30778;53.574;7.770;2022-12-18T10:13:31;102915.06;;;-4.81;45.30
45040;BME280;30778;53.574;7.770;2022-12-18T10:16:19;102923.63;;;-4.81;44.88
45040;BME280;30778;53.574;7.770;2022-12-18T10:21:51;102931.13;;;-4.53;44.79
45040;BME280;30778;53.574;7.770;2022-12-18T10:24:34;102932.47;;;-4.59;44.95
45040;BME280;30778;53.574;7.770;2022-12-18T10:27:13;102931.72;;;-4.42;44.81
45040;BME280;30778;53.574;7.770;2022-12-18T10:29:41;102915.75;;;-4.23;44.28
45040;BME280;30778;53.574;7.770;2022-12-18T10:32:14;102903.41;;;-4.30;44.33
45040;BME280;30778;53.574;7.770;2022-12-18T10:34:40;102910.69;;;-4.21;43.91
45040;BME280;30778;53.574;7.770;2022-12-18T10:37:15;102907.00;;;-4.12;43.95
45040;BME280;30778;53.574;7.770;2022-12-18T10:39:41;102896.69;;;-4.13;44.17
45040;BME280;30778;53.574;7.770;2022-12-18T10:42:16;102893.66;;;-4.06;44.23
45040;BME280;30778;53.574;7.770;2022-12-18T10:44:41;102888.00;;;-3.84;43.83
45040;BME280;30778;53.574;7.770;2022-12-18T10:47:12;102877.84;;;-3.82;43.72
45040;BME280;30778;53.574;7.770;2022-12-18T10:49:47;102880.00;;;-3.74;43.79
45040;BME280;30778;53.574;7.770;2022-12-18T10:55:13;102883.59;;;-3.70;43.42
45040;BME280;30778;53.574;7.770;2022-12-18T10:57:41;102871.59;;;-3.55;43.09
45040;BME280;30778;53.574;7.770;2022-12-18T11:00:31;102871.69;;;-3.53;43.24
45040;BME280;30778;53.574;7.770;2022-12-18T11:02:57;102887.44;;;-3.78;43.16
45040;BME280;30778;53.574;7.770;2022-12-18T11:07:54;102884.06;;;-3.61;42.74
45040;BME280;30778;53.574;7.770;2022-12-18T11:10:23;102879.53;;;-3.32;42.17
45040;BME280;30778;53.574;7.770;2022-12-18T11:12:51;102875.34;;;-3.14;42.78
45040;BME280;30778;53.574;7.770;2022-12-18T11:15:20;102868.53;;;-3.31;42.49
45040;BME280;30778;53.574;7.770;2022-12-18T11:17:49;102871.84;;;-3.16;42.20
45040;BME280;30778;53.574;7.770;2022-12-18T11:20:20;102867.91;;;-3.43;42.80
45040;BME280;30778;53.574;7.770;2022-12-18T11:22:59;102855.53;;;-3.00;42.30
45040;BME280;30778;53.574;7.770;2022-12-18T11:25:29;102848.66;;;-2.83;42.06
45040;BME280;30778;53.574;7.770;2022-12-18T11:28:01;102837.47;;;-2.85;42.15
45040;BME280;30778;53.574;7.770;2022-12-18T11:32:56;102821.75;;;-2.75;41.04
45040;BME280;30778;53.574;7.770;2022-12-18T11:38:23;102811.38;;;-2.58;41.21
45040;BME280;30778;53.574;7.770;2022-12-18T11:43:52;102796.28;;;-2.72;41.87
45040;BME280;30778;53.574;7.770;2022-12-18T11:46:27;102790.59;;;-2.84;41.98
45040;BME280;30778;53.574;7.770;2022-12-18T11:49:07;102780.69;;;-3.14;42.14
45040;BME280;30778;53.574;7.770;2022-12-18T11:51:54;102775.13;;;-3.23;43.34
45040;BME280;30778;53.574;7.770;2022-12-18T11:54:21;102780.91;;;-3.27;43.08
45040;BME280;30778;53.574;7.770;2022-12-18T11:56:51;102783.06;;;-3.53;43.85
45040;BME280;30778;53.574;7.770;2022-12-18T12:12:01;102789.78;;;-3.55;44.30
45040;BME280;30778;53.574;7.770;2022-12-18T12:17:09;102776.00;;;-3.58;44.64
45040;BME280;30778;53.574;7.770;2022-12-18T12:19:51;102771.97;;;-3.53;44.92
45040;BME280;30778;53.574;7.770;2022-12-18T12:26:11;102760.69;;;-3.75;44.94
45040;BME280;30778;53.574;7.770;2022-12-18T12:31:02;102752.03;;;-3.95;45.21
45040;BME280;30778;53.574;7.770;2022-12-18T12:36:31;102744.22;;;-3.98;45.67
45040;BME280;30778;53.574;7.770;2022-12-18T12:39:07;102751.13;;;-3.61;45.28
45040;BME280;30778;53.574;7.770;2022-12-18T12:41:36;102751.06;;;-3.80;45.50
45040;BME280;30778;53.574;7.770;2022-12-18T12:44:29;102744.50;;;-4.10;46.15
45040;BME280;30778;53.574;7.770;2022-12-18T12:46:59;102742.81;;;-4.09;46.41
45040;BME280;30778;53.574;7.770;2022-12-18T12:49:28;102739.25;;;-4.29;46.63
45040;BME280;30778;53.574;7.770;2022-12-18T12:52:26;102728.88;;;-4.48;47.25
45040;BME280;30778;53.574;7.770;2022-12-18T12:54:51;102734.75;;;-4.17;46.96
45040;BME280;30778;53.574;7.770;2022-12-18T12:57:26;102725.28;;;-3.85;46.78
45040;BME280;30778;53.574;7.770;2022-12-18T13:00:00;102724.91;;;-3.75;46.39
45040;BME280;30778;53.574;7.770;2022-12-18T13:03:19;102719.81;;;-4.09;46.99
45040;BME280;30778;53.574;7.770;2022-12-18T13:08:00;102710.88;;;-4.17;47.00
45040;BME280;30778;53.574;7.770;2022-12-18T13:10:39;102704.59;;;-4.24;46.88
45040;BME280;30778;53.574;7.770;2022-12-18T13:13:10;102699.31;;;-4.11;46.79
45040;BME280;30778;53.574;7.770;2022-12-18T13:18:20;102702.09;;;-4.06;46.67
45040;BME280;30778;53.574;7.770;2022-12-18T13:20:49;102694.69;;;-4.18;47.17
45040;BME280;30778;53.574;7.770;2022-12-18T13:23:35;102700.84;;;-4.31;47.37
45040;BME280;30778;53.574;7.770;2022-12-18T13:31:00;102699.97;;;-3.97;46.47
45040;BME280;30778;53.574;7.770;2022-12-18T13:38:40;102681.66;;;-4.73;48.51
45040;BME280;30778;53.574;7.770;2022-12-18T13:43:48;102666.75;;;-4.82;48.80
45040;BME280;30778;53.574;7.770;2022-12-18T13:46:42;102661.56;;;-4.67;48.12
45040;BME280;30778;53.574;7.770;2022-12-18T13:51:43;102653.34;;;-4.61;48.51
45040;BME280;30778;53.574;7.770;2022-12-18T13:56:59;102641.88;;;-5.02;49.28
45040;BME280;30778;53.574;7.770;2022-12-18T13:59:36;102640.09;;;-4.71;48.83
45040;BME280;30778;53.574;7.770;2022-12-18T14:02:17;102642.75;;;-4.69;48.86
45040;BME280;30778;53.574;7.770;2022-12-18T14:04:47;102644.59;;;-4.83;49.03
45040;BME280;30778;53.574;7.770;2022-12-18T14:07:19;102636.91;;;-4.66;48.65
45040;BME280;30778;53.574;7.770;2022-12-18T14:09:50;102633.75;;;-4.79;48.51
45040;BME280;30778;53.574;7.770;2022-12-18T14:12:21;102632.47;;;-4.87;48.72
45040;BME280;30778;53.574;7.770;2022-12-18T14:18:38;102643.88;;;-4.80;48.91
45040;BME280;30778;53.574;7.770;2022-12-18T14:21:17;102635.56;;;-5.09;49.61
45040;BME280;30778;53.574;7.770;2022-12-18T14:23:43;102627.97;;;-4.75;48.74
45040;BME280;30778;53.574;7.770;2022-12-18T14:26:38;102623.78;;;-4.74;48.86
45040;BME280;30778;53.574;7.770;2022-12-18T14:32:13;102613.41;;;-4.77;48.79
45040;BME280;30778;53.574;7.770;2022-12-18T14:34:50;102598.25;;;-4.90;48.91
45040;BME280;30778;53.574;7.770;2022-12-18T14:37:21;102608.88;;;-4.99;49.27
45040;BME280;30778;53.574;7.770;2022-12-18T14:39:54;102596.63;;;-4.90;48.95
45040;BME280;30778;53.574;7.770;2022-12-18T14:42:22;102591.50;;;-4.90;49.39
45040;BME280;30778;53.574;7.770;2022-12-18T14:44:48;102593.16;;;-4.90;49.01